This is the latest recevied weather packets stored in our database for station/object HA5CD-6. If no packets are shown the sender has not sent any weather packets the latest 10 day(s).
| Time | Temp. | Humidity | Pressure | Rain* | Wind** | Luminosity | Snow |
|---|---|---|---|---|---|---|---|
| 1777614072 | 16.67° C | 26% | 1004 hPa | - | - | - | - |
| 1777613472 | 17.22° C | 25% | 1004 hPa | - | - | - | - |
| 1777612872 | 17.78° C | 26% | 1004 hPa | - | - | - | - |
| 1777612272 | 16.67° C | 26% | 1004 hPa | - | - | - | - |
| 1777611672 | 16.11° C | 28% | 1004 hPa | - | - | - | - |
| 1777611072 | 15° C | 29% | 1004 hPa | - | - | - | - |
| 1777610472 | 13.89° C | 30% | 1004 hPa | - | - | - | - |
| 1777609872 | 12.78° C | 31% | 1004 hPa | - | - | - | - |
| 1777609271 | 11.67° C | 33% | 1004 hPa | - | - | - | - |
| 1777608671 | 10.56° C | 35% | 1004 hPa | - | - | - | - |
| 1777608071 | 8.89° C | 39% | 1004 hPa | - | - | - | - |
| 1777607471 | 6.11° C | 44% | 1004 hPa | - | - | - | - |
| 1777606871 | 6.11° C | 44% | 1004 hPa | - | - | - | - |
| 1777606271 | 6.11° C | 44% | 1004 hPa | - | - | - | - |
| 1777605671 | 5.56° C | 46% | 1004 hPa | - | - | - | - |
| 1777605071 | 5.56° C | 46% | 1004 hPa | - | - | - | - |
| 1777604471 | 5.56° C | 46% | 1004 hPa | - | - | - | - |
| 1777603870 | 5.56° C | 46% | 1004 hPa | - | - | - | - |
| 1777603270 | 5.56° C | 46% | 1004 hPa | - | - | - | - |
| 1777602670 | 5° C | 46% | 1004 hPa | - | - | - | - |
| 1777602070 | 5° C | 47% | 1004 hPa | - | - | - | - |
| 1777601470 | 5° C | 47% | 1004 hPa | - | - | - | - |
| 1777600870 | 5.56° C | 46% | 1004 hPa | - | - | - | - |
| 1777600270 | 5° C | 48% | 1004 hPa | - | - | - | - |
| 1777599670 | 3.89° C | 54% | 1004 hPa | - | - | - | - |
* Rain since midnight (hover to see other rain measurements)
** Current wind speed in m/s (hover to see current wind gust speed)